createdAt,value
2023-01-15T00:02:57.161Z,11.32
2023-01-15T00:06:04.923Z,10.02
2023-01-15T00:09:10.701Z,10.05
2023-01-15T00:12:16.172Z,10.35
2023-01-15T00:15:21.790Z,10.00
2023-01-15T00:18:29.809Z,11.02
2023-01-15T00:21:35.032Z,10.27
2023-01-15T00:24:53.183Z,10.00
2023-01-15T00:27:58.316Z,10.10
2023-01-15T00:31:03.775Z,10.77
2023-01-15T00:34:11.922Z,10.25
2023-01-15T00:37:17.226Z,11.05
2023-01-15T00:40:23.087Z,10.15
2023-01-15T00:43:29.952Z,11.15
2023-01-15T00:46:35.189Z,10.55
2023-01-15T00:49:43.077Z,10.88
2023-01-15T00:52:48.626Z,10.13
2023-01-15T00:55:54.128Z,10.70
2023-01-15T00:59:00.638Z,10.68
2023-01-15T01:02:06.059Z,9.93
2023-01-15T01:05:14.445Z,10.93
2023-01-15T01:08:20.769Z,10.20
2023-01-15T01:11:27.199Z,10.90
2023-01-15T01:14:32.746Z,11.00
2023-01-15T01:17:39.981Z,10.27
2023-01-15T01:20:47.862Z,10.70
2023-01-15T01:23:53.742Z,9.38
2023-01-15T01:26:58.985Z,11.63
2023-01-15T01:30:04.402Z,11.57
2023-01-15T01:33:11.591Z,9.82
2023-01-15T01:36:20.405Z,10.25
2023-01-15T01:39:25.486Z,10.73
2023-01-15T01:42:32.192Z,9.60
2023-01-15T01:45:37.759Z,10.48
2023-01-15T01:48:43.300Z,11.52
2023-01-15T01:51:53.748Z,9.85
2023-01-15T01:54:59.934Z,11.40
2023-01-15T01:58:07.218Z,10.48
2023-01-15T02:01:13.032Z,10.93
2023-01-15T02:04:19.047Z,10.20
2023-01-15T02:07:27.776Z,10.27
2023-01-15T02:10:33.020Z,10.60
2023-01-15T02:13:40.884Z,11.90
2023-01-15T02:16:50.117Z,10.68
2023-01-15T02:19:59.832Z,9.15
2023-01-15T02:23:22.788Z,10.20
2023-01-15T02:26:55.363Z,10.98
2023-01-15T02:30:07.420Z,10.32
2023-01-15T02:33:23.578Z,10.70
2023-01-15T02:36:30.252Z,10.07
2023-01-15T02:39:41.075Z,10.30
2023-01-15T02:42:50.153Z,10.02
2023-01-15T02:46:01.950Z,10.27
2023-01-15T02:49:08.932Z,9.63
2023-01-15T02:52:18.446Z,10.55
2023-01-15T02:55:26.278Z,11.30
2023-01-15T02:58:32.891Z,10.45
2023-01-15T03:01:46.461Z,10.68
2023-01-15T03:04:55.385Z,11.00
2023-01-15T03:08:02.354Z,10.68
2023-01-15T03:11:12.629Z,11.48
2023-01-15T03:14:24.997Z,10.45
2023-01-15T03:17:39.732Z,10.35
2023-01-15T03:20:46.558Z,10.25
2023-01-15T03:23:54.606Z,10.13
2023-01-15T03:27:03.735Z,10.65
2023-01-15T03:30:10.441Z,11.73
2023-01-15T03:33:18.571Z,10.32
2023-01-15T03:36:23.834Z,9.93
2023-01-15T03:39:29.678Z,10.93
2023-01-15T03:42:48.707Z,11.73
2023-01-15T03:45:56.631Z,10.07
2023-01-15T03:49:07.448Z,12.15
2023-01-15T03:52:17.806Z,10.50
2023-01-15T03:55:24.982Z,10.13
2023-01-15T03:58:45.746Z,10.25
2023-01-15T04:01:54.929Z,11.07
2023-01-15T04:05:05.210Z,10.73
2023-01-15T04:08:12.792Z,11.02
2023-01-15T04:11:25.426Z,11.18
2023-01-15T04:14:36.185Z,12.50
2023-01-15T04:17:46.153Z,10.27
2023-01-15T04:20:56.108Z,11.85
2023-01-15T04:24:01.794Z,10.98
2023-01-15T04:27:07.081Z,12.32
2023-01-15T04:30:13.458Z,11.32
2023-01-15T04:33:18.788Z,11.93
2023-01-15T04:36:26.846Z,11.48
2023-01-15T04:39:32.326Z,11.63
2023-01-15T04:42:50.061Z,10.82
2023-01-15T04:45:55.432Z,10.73
2023-01-15T04:49:00.733Z,10.57
2023-01-15T04:52:08.899Z,10.60
2023-01-15T04:55:14.500Z,12.10
2023-01-15T04:58:19.788Z,11.35
2023-01-15T05:01:25.443Z,11.80
2023-01-15T05:04:30.764Z,10.40
2023-01-15T05:07:38.911Z,12.35
2023-01-15T05:10:44.476Z,10.40
2023-01-15T05:13:50.085Z,11.00
2023-01-15T05:16:55.606Z,10.75
2023-01-15T05:20:01.172Z,10.35
2023-01-15T05:23:11.632Z,10.53
2023-01-15T05:26:16.958Z,10.25
2023-01-15T05:29:22.078Z,11.63
2023-01-15T05:32:27.576Z,10.40
2023-01-15T05:35:32.778Z,9.95
2023-01-15T05:38:41.168Z,10.18
2023-01-15T05:41:53.063Z,10.85
2023-01-15T05:44:58.562Z,9.70
2023-01-15T05:48:03.781Z,10.88
2023-01-15T05:51:09.375Z,11.45
2023-01-15T05:54:17.952Z,10.63
2023-01-15T05:57:23.618Z,9.98
2023-01-15T06:00:30.535Z,12.05
2023-01-15T06:03:35.963Z,9.60
2023-01-15T06:06:42.192Z,9.98
2023-01-15T06:09:50.286Z,12.30
2023-01-15T06:12:55.556Z,10.63
2023-01-15T06:16:02.304Z,11.65
2023-01-15T06:19:08.184Z,10.80
2023-01-15T06:22:13.595Z,11.23
2023-01-15T06:25:21.989Z,11.07
2023-01-15T06:28:27.700Z,11.05
2023-01-15T06:31:33.261Z,10.77
2023-01-15T06:34:39.302Z,12.02
2023-01-15T06:37:44.567Z,11.13
2023-01-15T06:40:52.628Z,11.18
2023-01-15T06:44:10.145Z,11.15
2023-01-15T06:47:26.568Z,10.90
2023-01-15T06:50:31.913Z,11.60
2023-01-15T06:53:37.392Z,11.25
2023-01-15T06:56:45.228Z,10.70
2023-01-15T06:59:51.051Z,11.90
2023-01-15T07:02:56.304Z,11.10
2023-01-15T07:06:01.701Z,12.40
2023-01-15T07:09:07.496Z,10.48
2023-01-15T07:12:15.475Z,12.02
2023-01-15T07:15:20.677Z,11.35
2023-01-15T07:18:26.289Z,11.80
2023-01-15T07:21:32.239Z,10.50
2023-01-15T07:24:37.270Z,10.15
2023-01-15T07:27:45.551Z,10.25
2023-01-15T07:30:50.850Z,10.50
2023-01-15T07:33:56.386Z,10.02
2023-01-15T07:37:01.709Z,11.75
2023-01-15T07:40:07.867Z,12.00
2023-01-15T07:43:27.950Z,12.98
2023-01-15T07:46:45.814Z,10.63
2023-01-15T07:49:51.323Z,10.43
2023-01-15T07:52:56.543Z,11.18
2023-01-15T07:56:01.993Z,11.00
2023-01-15T07:59:10.049Z,11.30
2023-01-15T08:02:15.954Z,10.90
2023-01-15T08:05:21.679Z,12.23
2023-01-15T08:08:27.108Z,13.05
2023-01-15T08:11:44.907Z,12.13
2023-01-15T08:15:05.244Z,11.10
2023-01-15T08:18:10.628Z,12.38
2023-01-15T08:21:19.555Z,12.88
2023-01-15T08:24:25.015Z,12.23
2023-01-15T08:27:32.737Z,13.55
2023-01-15T08:30:41.562Z,12.77
2023-01-15T08:33:47.816Z,12.20
2023-01-15T08:36:57.655Z,14.35
2023-01-15T08:40:02.931Z,12.57
2023-01-15T08:43:08.567Z,11.93
2023-01-15T08:46:16.671Z,11.63
2023-01-15T08:49:24.825Z,12.73
2023-01-15T08:52:30.117Z,12.85
2023-01-15T08:55:36.123Z,12.40
2023-01-15T08:58:41.645Z,12.07
2023-01-15T09:01:49.819Z,11.43
2023-01-15T09:04:55.684Z,12.07
2023-01-15T09:08:00.983Z,12.23
2023-01-15T09:11:07.589Z,12.75
2023-01-15T09:14:57.202Z,13.05
2023-01-15T09:17:42.430Z,12.23
2023-01-15T09:20:47.756Z,12.10
2023-01-15T09:23:53.526Z,13.30
2023-01-15T09:26:59.015Z,13.90
2023-01-15T09:30:04.548Z,11.70
2023-01-15T09:33:13.020Z,13.23
2023-01-15T09:36:19.448Z,13.15
2023-01-15T09:39:25.197Z,13.88
2023-01-15T09:42:34.739Z,12.43
2023-01-15T09:45:43.792Z,12.25
2023-01-15T09:49:02.047Z,11.77
2023-01-15T09:52:13.262Z,13.30
2023-01-15T09:55:20.959Z,11.55
2023-01-15T09:58:30.932Z,11.77
2023-01-15T10:01:37.948Z,12.55
2023-01-15T10:04:46.581Z,13.38
2023-01-15T10:07:56.573Z,13.00
2023-01-15T10:11:04.288Z,11.98
2023-01-15T10:14:12.333Z,12.82
2023-01-15T10:17:26.463Z,11.40
2023-01-15T10:20:43.149Z,10.82
2023-01-15T10:23:51.995Z,11.60
2023-01-15T10:26:58.621Z,10.98
2023-01-15T10:30:08.392Z,13.23
2023-01-15T10:33:23.538Z,11.25
2023-01-15T10:36:35.579Z,11.05
2023-01-15T10:39:47.165Z,11.30
2023-01-15T10:42:56.389Z,9.90
2023-01-15T10:46:02.872Z,11.18
2023-01-15T10:49:09.256Z,10.23
2023-01-15T10:52:23.307Z,10.60
2023-01-15T10:55:31.643Z,10.05
2023-01-15T10:58:41.125Z,12.00
2023-01-15T11:01:46.688Z,10.55
2023-01-15T11:04:51.842Z,11.07
2023-01-15T11:08:34.472Z,10.77
2023-01-15T11:11:43.235Z,9.63
2023-01-15T11:15:01.567Z,9.93
2023-01-15T11:18:26.651Z,9.48
2023-01-15T11:21:32.643Z,9.55
2023-01-15T11:24:40.518Z,10.48
2023-01-15T11:27:46.137Z,9.50
2023-01-15T11:30:57.091Z,9.43
2023-01-15T11:34:03.431Z,9.10
2023-01-15T11:37:08.908Z,9.65
2023-01-15T11:40:23.751Z,10.13
2023-01-15T11:43:41.896Z,8.73
2023-01-15T11:47:01.711Z,9.30
2023-01-15T11:50:43.278Z,9.73
2023-01-15T11:53:51.211Z,7.70
2023-01-15T11:56:59.428Z,9.85
2023-01-15T12:00:05.198Z,9.05
2023-01-15T12:03:16.347Z,9.55
2023-01-15T12:06:23.022Z,7.75
2023-01-15T12:09:34.274Z,9.00
2023-01-15T12:12:45.836Z,7.40
2023-01-15T12:15:55.604Z,7.90
2023-01-15T12:19:05.103Z,8.40
2023-01-15T12:22:22.724Z,8.70
2023-01-15T12:25:34.297Z,7.78
2023-01-15T12:28:44.060Z,7.35
2023-01-15T12:31:51.024Z,7.90
2023-01-15T12:34:59.366Z,7.10
2023-01-15T12:38:08.637Z,7.13
2023-01-15T12:41:16.753Z,7.70
2023-01-15T12:44:38.583Z,7.25
2023-01-15T12:47:46.382Z,7.25
2023-01-15T12:50:53.110Z,7.45
2023-01-15T12:54:00.695Z,7.40
2023-01-15T12:57:09.153Z,6.90
2023-01-15T13:03:27.263Z,6.95
2023-01-15T13:06:32.943Z,6.90
2023-01-15T13:09:41.263Z,6.80
2023-01-15T13:16:04.607Z,6.38
2023-01-15T13:19:21.408Z,7.05
2023-01-15T13:22:28.476Z,5.90
2023-01-15T13:25:54.548Z,5.82
2023-01-15T13:29:05.552Z,5.82
2023-01-15T13:32:15.063Z,6.13
2023-01-15T13:35:30.651Z,5.63
2023-01-15T13:38:41.577Z,5.93
2023-01-15T13:42:02.622Z,6.28
2023-01-15T13:45:10.689Z,6.07
2023-01-15T13:48:16.854Z,5.18
2023-01-15T13:51:37.911Z,5.70
2023-01-15T13:54:44.832Z,4.72
2023-01-15T13:57:50.969Z,5.40
2023-01-15T14:01:08.652Z,5.85
2023-01-15T14:04:17.254Z,5.63
2023-01-15T14:07:26.607Z,5.95
2023-01-15T14:10:40.934Z,5.88
2023-01-15T14:13:56.644Z,6.07
2023-01-15T14:17:07.740Z,5.80
2023-01-15T14:20:34.181Z,6.70
2023-01-15T14:23:53.367Z,6.20
2023-01-15T14:27:02.781Z,5.90
2023-01-15T14:30:16.482Z,7.07
2023-01-15T14:33:27.423Z,6.53
2023-01-15T14:36:34.031Z,6.20
2023-01-15T14:39:46.224Z,6.05
2023-01-15T14:43:05.424Z,7.60
2023-01-15T14:46:17.476Z,6.15
2023-01-15T14:49:31.552Z,5.85
2023-01-15T14:52:37.193Z,5.90
2023-01-15T14:55:49.106Z,5.75
2023-01-15T14:58:56.525Z,5.82
2023-01-15T15:02:03.737Z,6.25
2023-01-15T15:05:12.229Z,5.88
2023-01-15T15:11:40.679Z,6.45
2023-01-15T15:14:49.483Z,6.05
2023-01-15T15:18:01.007Z,5.97
2023-01-15T15:21:09.404Z,6.25
2023-01-15T15:24:18.640Z,6.10
2023-01-15T15:27:27.443Z,7.35
2023-01-15T15:30:34.404Z,6.85
2023-01-15T15:33:41.118Z,7.05
2023-01-15T15:36:48.812Z,7.22
2023-01-15T15:39:56.822Z,7.20
2023-01-15T15:43:19.675Z,7.25
2023-01-15T15:46:38.447Z,6.90
2023-01-15T15:49:43.785Z,6.95
2023-01-15T15:52:48.905Z,7.28
2023-01-15T15:55:54.523Z,7.55
2023-01-15T15:59:05.400Z,8.07
2023-01-15T16:02:16.979Z,8.02
2023-01-15T16:05:27.448Z,7.47
2023-01-15T16:08:33.309Z,7.70
2023-01-15T16:11:39.086Z,7.93
2023-01-15T16:14:47.434Z,7.25
2023-01-15T16:17:53.652Z,7.75
2023-01-15T16:20:59.541Z,8.18
2023-01-15T16:24:05.515Z,7.85
2023-01-15T16:27:13.467Z,8.70
2023-01-15T16:30:22.152Z,7.75
2023-01-15T16:33:27.980Z,8.38
2023-01-15T16:36:41.393Z,7.43
2023-01-15T16:39:48.251Z,8.25
2023-01-15T16:43:02.408Z,7.30
2023-01-15T16:46:19.100Z,7.45
2023-01-15T16:49:29.125Z,7.78
2023-01-15T16:52:49.553Z,7.20
2023-01-15T16:55:57.292Z,6.75
2023-01-15T16:59:02.375Z,7.50
2023-01-15T17:02:16.043Z,7.53
2023-01-15T17:05:24.858Z,7.90
2023-01-15T17:08:35.215Z,7.50
2023-01-15T17:11:41.052Z,7.93
2023-01-15T17:14:46.592Z,7.93
2023-01-15T17:17:54.970Z,8.18
2023-01-15T17:21:00.789Z,7.78
2023-01-15T17:24:06.753Z,9.07
2023-01-15T17:27:12.359Z,7.72
2023-01-15T17:30:18.770Z,7.75
2023-01-15T17:33:26.713Z,8.50
2023-01-15T17:36:33.310Z,8.18
2023-01-15T17:39:38.545Z,8.00
2023-01-15T17:42:44.005Z,8.77
2023-01-15T17:45:49.830Z,8.63
2023-01-15T17:48:58.220Z,9.35
2023-01-15T17:52:03.867Z,8.27
2023-01-15T17:55:22.348Z,9.05
2023-01-15T17:58:40.302Z,9.45
2023-01-15T18:01:59.924Z,7.68
2023-01-15T18:05:21.022Z,10.30
2023-01-15T18:08:26.346Z,10.57
2023-01-15T18:11:31.717Z,9.75
2023-01-15T18:14:37.687Z,10.77
2023-01-15T18:17:43.036Z,10.82
2023-01-15T18:20:51.299Z,10.60
2023-01-15T18:23:56.749Z,10.88
2023-01-15T18:27:02.259Z,10.57
2023-01-15T18:30:08.451Z,9.40
2023-01-15T18:33:13.842Z,10.38
2023-01-15T18:36:21.876Z,11.40
2023-01-15T18:39:27.334Z,9.73
2023-01-15T18:42:50.666Z,9.93
2023-01-15T18:46:11.222Z,10.50
2023-01-15T18:49:16.632Z,10.88
2023-01-15T18:52:37.124Z,10.10
2023-01-15T18:55:42.604Z,9.68
2023-01-15T18:58:48.117Z,10.15
2023-01-15T19:01:53.515Z,10.27
2023-01-15T19:05:00.213Z,10.43
2023-01-15T19:08:08.583Z,10.05
2023-01-15T19:14:31.660Z,8.52
2023-01-15T19:17:49.535Z,10.02
2023-01-15T19:20:54.598Z,10.25
2023-01-15T19:24:02.773Z,9.25
2023-01-15T19:27:08.183Z,10.93
2023-01-15T19:30:14.216Z,10.23
2023-01-15T19:33:19.707Z,10.18
2023-01-15T19:36:25.054Z,9.60
2023-01-15T19:39:33.308Z,9.80
2023-01-15T19:42:52.073Z,9.63
2023-01-15T19:46:09.736Z,9.82
2023-01-15T19:49:30.526Z,10.50
2023-01-15T19:52:39.033Z,9.27
2023-01-15T19:55:48.002Z,8.95
2023-01-15T19:58:53.599Z,9.30
2023-01-15T20:02:02.760Z,9.32
2023-01-15T20:05:08.688Z,9.10
2023-01-15T20:08:16.606Z,9.10
2023-01-15T20:11:44.936Z,9.15
2023-01-15T20:14:47.885Z,9.38
2023-01-15T20:17:55.465Z,8.85
2023-01-15T20:21:01.124Z,9.77
2023-01-15T20:24:06.501Z,10.50
2023-01-15T20:27:15.219Z,9.75
2023-01-15T20:30:22.020Z,9.82
2023-01-15T20:33:27.846Z,9.70
2023-01-15T20:36:34.460Z,9.07
2023-01-15T20:39:39.962Z,10.63
2023-01-15T20:43:00.498Z,8.93
2023-01-15T20:46:14.209Z,9.13
2023-01-15T20:49:27.781Z,9.00
2023-01-15T20:52:33.448Z,9.35
2023-01-15T20:55:54.675Z,9.45
2023-01-15T20:59:03.794Z,9.43
2023-01-15T21:02:09.539Z,8.40
2023-01-15T21:05:15.154Z,10.70
2023-01-15T21:08:21.173Z,9.65
2023-01-15T21:11:26.885Z,9.75
2023-01-15T21:14:34.736Z,10.02
2023-01-15T21:17:41.279Z,9.90
2023-01-15T21:20:47.092Z,9.80
2023-01-15T21:23:52.230Z,10.15
2023-01-15T21:26:57.470Z,9.57
2023-01-15T21:30:05.317Z,11.27
2023-01-15T21:33:11.746Z,10.23
2023-01-15T21:36:17.923Z,9.70
2023-01-15T21:39:23.426Z,10.18
2023-01-15T21:42:41.206Z,10.15
2023-01-15T21:45:51.113Z,9.40
2023-01-15T21:48:56.621Z,10.43
2023-01-15T21:52:02.015Z,11.30
2023-01-15T21:55:07.796Z,10.30
2023-01-15T21:58:13.200Z,10.32
2023-01-15T22:01:22.513Z,9.82
2023-01-15T22:04:28.471Z,10.00
2023-01-15T22:07:33.875Z,10.38
2023-01-15T22:10:39.184Z,10.27
2023-01-15T22:13:44.894Z,10.90
2023-01-15T22:16:53.890Z,10.40
2023-01-15T22:19:59.571Z,11.30
2023-01-15T22:23:04.788Z,10.77
2023-01-15T22:26:11.103Z,10.50
2023-01-15T22:29:16.349Z,11.02
2023-01-15T22:32:24.706Z,10.63
2023-01-15T22:35:29.787Z,10.70
2023-01-15T22:38:35.545Z,10.73
2023-01-15T22:41:53.372Z,10.68
2023-01-15T22:45:00.975Z,11.63
2023-01-15T22:48:09.249Z,10.38
2023-01-15T22:51:14.665Z,9.63
2023-01-15T22:54:20.344Z,10.85
2023-01-15T22:57:25.996Z,9.57
2023-01-15T23:00:31.485Z,10.77
2023-01-15T23:03:40.385Z,10.10
2023-01-15T23:06:46.060Z,9.88
2023-01-15T23:09:51.649Z,10.65
2023-01-15T23:12:57.367Z,10.27
2023-01-15T23:16:03.691Z,10.43
2023-01-15T23:19:12.424Z,10.88
2023-01-15T23:22:18.504Z,10.23
2023-01-15T23:25:24.156Z,10.27
2023-01-15T23:28:29.568Z,10.70
2023-01-15T23:31:35.607Z,10.63
2023-01-15T23:34:43.448Z,9.73
2023-01-15T23:37:48.852Z,10.00
2023-01-15T23:40:54.438Z,9.43
2023-01-15T23:44:12.251Z,10.98
2023-01-15T23:47:17.556Z,10.15
2023-01-15T23:50:25.843Z,10.20
2023-01-15T23:53:31.239Z,10.35
2023-01-15T23:56:36.709Z,11.02
2023-01-15T23:59:42.294Z,10.30
